KLM Cityhopper E190 at Berlin on Sep 12th 2021, takeoff from 1320 meters past prepared line up

Last Update: October 14, 2021 / 08:55:30 GMT/Zulu time

Bookmark this article
Incident Facts

Date of incident
Sep 12, 2021

Classification
Incident

Flight number
KL-1822

Aircraft Registration
PH-EZY

Aircraft Type
Embraer ERJ-190

ICAO Type Designator
E190

Airport ICAO Code
EDDB

A KLM Cityhopper Embraer ERJ-190, registration PH-EZY performing flight KL-1822 from Berlin Brandenburg (Germany) to Amsterdam (Netherlands), lined up runway 25R for departure via taxiway L5 and commenced takeoff becoming airborne at about the displaced threshold runway 07L. The aircraft continued to Amsterdam for a safe landing.

On Oct 14th 2021 the Dutch Onderzoeksraad (DSB, Dutch Safety Board) reported they were delegated the investigation into the occurrence by the German BFU. The DSB stated: "During take-off from runway 25R of Berlin Airport, the aircraft departed from another position than the crew had entered into the aircraft system. Consequently, the available runway length was 1,320 metres less than calculated."

ADS-B data show the KLM Embraer usually line up at taxiway L7 and commence takeoff from the displaced threshold of runway 25R, which provides 3300 meters/10,800 feet of available takeoff run (TORA) and available Accelerate-Stop Distance available (ASDA). After lining up via L5 the occurrence aircraft had only 1980 meters/6500 feet available for the takeoff run/accelerate and stop instead.

According to the Aerodrome Chart Line up via L7 provides for 3300 meters TORA/ASDA, whereas line up via L5 provides for 2065 meters TORA/ASDA.

Metars:
EDDB 120920Z 28007KT 9999 SCT012 BKN016 19/16 Q1017 TEMPO BKN012=
EDDB 120850Z 27007KT 9999 SCT011 BKN016 19/16 Q1017 TEMPO BKN011=
EDDB 120820Z 28009KT 9999 SCT016 18/16 Q1017 NOSIG=
EDDB 120750Z 27009KT 9999 FEW016 BKN023 18/15 Q1017 NOSIG=
EDDB 120720Z 26007KT CAVOK 17/15 Q1016 NOSIG=
EDDB 120650Z 25006KT 210V270 CAVOK 17/15 Q1016 NOSIG=
EDDB 120620Z 23005KT CAVOK 16/14 Q1016 NOSIG=
EDDB 120550Z 23005KT CAVOK 16/14 Q1016 TEMPO 4000 BR=
EDDB 120520Z 23006KT CAVOK 15/14 Q1016 TEMPO 4000 BR=
EDDB 120450Z 22007KT CAVOK 15/14 Q1016 TEMPO 4000 BR=
EDDB 120420Z 24004KT CAVOK 14/14 Q1016 TEMPO 4000 BR=
Incident Facts

Date of incident
Sep 12, 2021

Classification
Incident

Flight number
KL-1822

Aircraft Registration
PH-EZY

Aircraft Type
Embraer ERJ-190

ICAO Type Designator
E190

Airport ICAO Code
EDDB

This article is published under license from Avherald.com. © of text by Avherald.com.
Article source

You can read 4 more free articles without a subscription.

Subscribe now and continue reading without any limits!

Are you a subscriber?
Login
Subscribe

Read unlimited articles and receive our daily update briefing. Gain better insights into what is happening in commercial aviation safety.

Free newsletter

Want to know more and stay ahead? Get our free weekly newsletter and join 4859 existing subscribers.

By subscribing, you accept our terms and conditions and confirm that you've read our privacy policy.

Send tip

Support AeroInside by sending a small tip amount.

Related articles

Newest articles

Subscribe today

Are you researching aviation incidents? Get access to AeroInside Insights, unlimited read access and receive the daily newsletter.

Pick your plan and subscribe

Partner

Blockaviation logo

A new way to document and demonstrate airworthiness compliance and aircraft value. Find out more.

Virtual Speech logo

Train yourself online in VR with the special course for aviation: "Crisis Communications: Airlines". Find out more.

Get updates

Never miss an article from AeroInside. Subscribe to our free weekly newsletter and join 4859 existing subscribers.

By subscribing, you accept our terms and conditions and that you've read our privacy policy.

AeroInside Blog
Popular aircraft
Airbus A320
Boeing 737-800
Boeing 737-800 MAX
Popular airlines
American Airlines
United
Delta
Air Canada
Lufthansa
British Airways